sensor_id;sensor_type;location;lat;lon;timestamp;temperature;humidity
15328;DHT22;7764;51.430;6.840;2023-01-29T00:00:20;-0.80;99.90
15328;DHT22;7764;51.430;6.840;2023-01-29T00:02:47;-0.80;99.90
15328;DHT22;7764;51.430;6.840;2023-01-29T00:05:14;-0.80;99.90
15328;DHT22;7764;51.430;6.840;2023-01-29T00:07:42;-0.80;99.90
15328;DHT22;7764;51.430;6.840;2023-01-29T00:10:10;-0.80;99.90
15328;DHT22;7764;51.430;6.840;2023-01-29T00:12:37;-0.80;99.90
15328;DHT22;7764;51.430;6.840;2023-01-29T00:15:04;-0.80;99.90
15328;DHT22;7764;51.430;6.840;2023-01-29T00:17:31;-0.90;99.90
15328;DHT22;7764;51.430;6.840;2023-01-29T00:19:58;-0.80;99.90
15328;DHT22;7764;51.430;6.840;2023-01-29T00:22:25;-0.80;99.90
15328;DHT22;7764;51.430;6.840;2023-01-29T00:24:53;-0.70;99.90
15328;DHT22;7764;51.430;6.840;2023-01-29T00:27:20;-0.70;99.90
15328;DHT22;7764;51.430;6.840;2023-01-29T00:29:47;-0.80;99.90
15328;DHT22;7764;51.430;6.840;2023-01-29T00:32:33;-0.90;99.90
15328;DHT22;7764;51.430;6.840;2023-01-29T00:35:00;-0.80;99.90
15328;DHT22;7764;51.430;6.840;2023-01-29T00:37:27;-0.80;99.90
15328;DHT22;7764;51.430;6.840;2023-01-29T00:39:55;-0.80;99.90
15328;DHT22;7764;51.430;6.840;2023-01-29T00:42:22;-0.80;99.90
15328;DHT22;7764;51.430;6.840;2023-01-29T00:45:07;-0.80;99.90
15328;DHT22;7764;51.430;6.840;2023-01-29T00:47:34;-0.90;99.90
15328;DHT22;7764;51.430;6.840;2023-01-29T00:50:01;-0.90;99.90
15328;DHT22;7764;51.430;6.840;2023-01-29T00:52:29;-0.90;99.90
15328;DHT22;7764;51.430;6.840;2023-01-29T00:54:58;-0.90;99.90
15328;DHT22;7764;51.430;6.840;2023-01-29T00:57:26;-0.90;99.90
15328;DHT22;7764;51.430;6.840;2023-01-29T00:59:53;-0.90;99.90
15328;DHT22;7764;51.430;6.840;2023-01-29T01:02:20;-0.90;99.90
15328;DHT22;7764;51.430;6.840;2023-01-29T01:05:06;-0.90;99.90
15328;DHT22;7764;51.430;6.840;2023-01-29T01:07:38;-0.90;99.90
15328;DHT22;7764;51.430;6.840;2023-01-29T01:10:09;-0.90;99.90
15328;DHT22;7764;51.430;6.840;2023-01-29T01:12:50;-0.90;99.90
15328;DHT22;7764;51.430;6.840;2023-01-29T01:15:18;-0.90;99.90
15328;DHT22;7764;51.430;6.840;2023-01-29T01:17:45;-0.90;99.90
15328;DHT22;7764;51.430;6.840;2023-01-29T01:20:14;-1.00;99.90
15328;DHT22;7764;51.430;6.840;2023-01-29T01:22:40;-0.90;99.90
15328;DHT22;7764;51.430;6.840;2023-01-29T01:25:09;-0.90;99.90
15328;DHT22;7764;51.430;6.840;2023-01-29T01:27:36;-1.00;99.90
15328;DHT22;7764;51.430;6.840;2023-01-29T01:30:08;-1.00;99.90
15328;DHT22;7764;51.430;6.840;2023-01-29T01:32:35;-1.00;99.90
15328;DHT22;7764;51.430;6.840;2023-01-29T01:35:02;-1.00;99.90
15328;DHT22;7764;51.430;6.840;2023-01-29T01:37:29;-1.00;99.90
15328;DHT22;7764;51.430;6.840;2023-01-29T01:39:56;-1.00;99.90
15328;DHT22;7764;51.430;6.840;2023-01-29T01:42:28;-1.00;99.90
15328;DHT22;7764;51.430;6.840;2023-01-29T01:44:57;-1.00;99.90
15328;DHT22;7764;51.430;6.840;2023-01-29T01:47:31;-0.90;99.90
15328;DHT22;7764;51.430;6.840;2023-01-29T01:50:02;-1.00;99.90
15328;DHT22;7764;51.430;6.840;2023-01-29T01:52:35;-1.00;99.90
15328;DHT22;7764;51.430;6.840;2023-01-29T01:55:06;-0.90;99.90
15328;DHT22;7764;51.430;6.840;2023-01-29T01:57:35;-0.90;99.90
15328;DHT22;7764;51.430;6.840;2023-01-29T02:00:08;-0.90;99.90
15328;DHT22;7764;51.430;6.840;2023-01-29T02:02:38;-1.00;99.90
15328;DHT22;7764;51.430;6.840;2023-01-29T02:05:23;-1.00;99.90
15328;DHT22;7764;51.430;6.840;2023-01-29T02:08:08;-0.90;99.90
15328;DHT22;7764;51.430;6.840;2023-01-29T02:10:53;-0.90;99.90
15328;DHT22;7764;51.430;6.840;2023-01-29T02:13:22;-0.90;99.90
15328;DHT22;7764;51.430;6.840;2023-01-29T02:15:49;-0.90;99.90
15328;DHT22;7764;51.430;6.840;2023-01-29T02:18:17;-1.00;99.90
15328;DHT22;7764;51.430;6.840;2023-01-29T02:20:51;-1.00;99.90
15328;DHT22;7764;51.430;6.840;2023-01-29T02:26:38;-0.90;99.90
15328;DHT22;7764;51.430;6.840;2023-01-29T02:29:09;-0.90;99.90
15328;DHT22;7764;51.430;6.840;2023-01-29T02:31:58;-0.90;99.90
15328;DHT22;7764;51.430;6.840;2023-01-29T02:34:37;-0.90;99.90
15328;DHT22;7764;51.430;6.840;2023-01-29T02:37:29;-0.90;99.90
15328;DHT22;7764;51.430;6.840;2023-01-29T02:40:06;-0.90;99.90
15328;DHT22;7764;51.430;6.840;2023-01-29T02:42:40;-0.90;99.90
15328;DHT22;7764;51.430;6.840;2023-01-29T02:45:12;-0.90;99.90
15328;DHT22;7764;51.430;6.840;2023-01-29T02:47:44;-0.90;99.90
15328;DHT22;7764;51.430;6.840;2023-01-29T02:50:16;-0.90;99.90
15328;DHT22;7764;51.430;6.840;2023-01-29T02:52:51;-0.90;99.90
15328;DHT22;7764;51.430;6.840;2023-01-29T02:55:23;-0.90;99.90
15328;DHT22;7764;51.430;6.840;2023-01-29T02:57:55;-0.90;99.90
15328;DHT22;7764;51.430;6.840;2023-01-29T03:00:27;-0.90;99.90
15328;DHT22;7764;51.430;6.840;2023-01-29T03:02:59;-0.90;99.90
15328;DHT22;7764;51.430;6.840;2023-01-29T03:05:42;-0.90;99.90
15328;DHT22;7764;51.430;6.840;2023-01-29T03:08:12;-0.90;99.90
15328;DHT22;7764;51.430;6.840;2023-01-29T03:10:46;-0.90;99.90
15328;DHT22;7764;51.430;6.840;2023-01-29T03:13:19;-0.90;99.90
15328;DHT22;7764;51.430;6.840;2023-01-29T03:15:55;-0.90;99.90
15328;DHT22;7764;51.430;6.840;2023-01-29T03:18:29;-0.90;99.90
15328;DHT22;7764;51.430;6.840;2023-01-29T03:21:04;-0.90;99.90
15328;DHT22;7764;51.430;6.840;2023-01-29T03:23:54;-0.90;99.90
15328;DHT22;7764;51.430;6.840;2023-01-29T03:26:40;-0.90;99.90
15328;DHT22;7764;51.430;6.840;2023-01-29T03:29:26;-0.90;99.90
15328;DHT22;7764;51.430;6.840;2023-01-29T03:32:14;-0.90;99.90
15328;DHT22;7764;51.430;6.840;2023-01-29T03:34:43;-1.00;99.90
15328;DHT22;7764;51.430;6.840;2023-01-29T03:37:16;-0.90;99.90
15328;DHT22;7764;51.430;6.840;2023-01-29T03:39:44;-0.90;99.90
15328;DHT22;7764;51.430;6.840;2023-01-29T03:42:17;-1.00;99.90
15328;DHT22;7764;51.430;6.840;2023-01-29T03:44:52;-0.90;99.90
15328;DHT22;7764;51.430;6.840;2023-01-29T03:47:23;-1.00;99.90
15328;DHT22;7764;51.430;6.840;2023-01-29T03:49:56;-1.00;99.90
15328;DHT22;7764;51.430;6.840;2023-01-29T03:52:30;-1.00;99.90
15328;DHT22;7764;51.430;6.840;2023-01-29T03:55:03;-1.00;99.90
15328;DHT22;7764;51.430;6.840;2023-01-29T03:57:37;-1.00;99.90
15328;DHT22;7764;51.430;6.840;2023-01-29T04:00:11;-1.00;99.90
15328;DHT22;7764;51.430;6.840;2023-01-29T04:02:47;-1.00;99.90
15328;DHT22;7764;51.430;6.840;2023-01-29T04:05:19;-1.00;99.90
15328;DHT22;7764;51.430;6.840;2023-01-29T04:07:47;-1.00;99.90
15328;DHT22;7764;51.430;6.840;2023-01-29T04:10:19;-1.00;99.90
15328;DHT22;7764;51.430;6.840;2023-01-29T04:12:50;-1.00;99.90
15328;DHT22;7764;51.430;6.840;2023-01-29T04:15:19;-0.90;99.90
15328;DHT22;7764;51.430;6.840;2023-01-29T04:17:51;-0.90;99.90
15328;DHT22;7764;51.430;6.840;2023-01-29T04:20:19;-0.90;99.90
15328;DHT22;7764;51.430;6.840;2023-01-29T04:22:47;-0.90;99.90
15328;DHT22;7764;51.430;6.840;2023-01-29T04:25:16;-0.80;99.90
15328;DHT22;7764;51.430;6.840;2023-01-29T04:27:56;-0.80;99.90
15328;DHT22;7764;51.430;6.840;2023-01-29T04:30:34;-0.80;99.90
15328;DHT22;7764;51.430;6.840;2023-01-29T04:33:15;-0.70;99.90
15328;DHT22;7764;51.430;6.840;2023-01-29T04:35:59;-0.70;99.90
15328;DHT22;7764;51.430;6.840;2023-01-29T04:38:38;-0.60;99.90
15328;DHT22;7764;51.430;6.840;2023-01-29T04:41:12;-0.50;99.90
15328;DHT22;7764;51.430;6.840;2023-01-29T04:43:46;-0.50;99.90
15328;DHT22;7764;51.430;6.840;2023-01-29T04:46:20;-0.50;99.90
15328;DHT22;7764;51.430;6.840;2023-01-29T04:49:05;-0.40;99.90
15328;DHT22;7764;51.430;6.840;2023-01-29T04:51:42;-0.40;99.90
15328;DHT22;7764;51.430;6.840;2023-01-29T04:54:16;-0.40;99.90
15328;DHT22;7764;51.430;6.840;2023-01-29T04:56:50;-0.40;99.90
15328;DHT22;7764;51.430;6.840;2023-01-29T04:59:22;-0.40;99.90
15328;DHT22;7764;51.430;6.840;2023-01-29T05:01:51;-0.30;99.90
15328;DHT22;7764;51.430;6.840;2023-01-29T05:04:20;-0.30;99.90
15328;DHT22;7764;51.430;6.840;2023-01-29T05:06:49;-0.20;99.90
15328;DHT22;7764;51.430;6.840;2023-01-29T05:09:17;-0.20;99.90
15328;DHT22;7764;51.430;6.840;2023-01-29T05:11:46;-0.10;99.90
15328;DHT22;7764;51.430;6.840;2023-01-29T05:14:16;-0.10;99.90
15328;DHT22;7764;51.430;6.840;2023-01-29T05:16:46;-0.10;99.90
15328;DHT22;7764;51.430;6.840;2023-01-29T05:19:14;-0.10;99.90
15328;DHT22;7764;51.430;6.840;2023-01-29T05:21:45;-0.10;99.90
15328;DHT22;7764;51.430;6.840;2023-01-29T05:24:14;-0.10;99.90
15328;DHT22;7764;51.430;6.840;2023-01-29T05:26:41;-0.10;99.90
15328;DHT22;7764;51.430;6.840;2023-01-29T05:29:26;-0.10;99.90
15328;DHT22;7764;51.430;6.840;2023-01-29T05:31:53;0.00;99.90
15328;DHT22;7764;51.430;6.840;2023-01-29T05:34:19;-0.10;99.90
15328;DHT22;7764;51.430;6.840;2023-01-29T05:36:48;0.00;99.90
15328;DHT22;7764;51.430;6.840;2023-01-29T05:39:14;0.00;99.90
15328;DHT22;7764;51.430;6.840;2023-01-29T05:41:42;0.10;99.90
15328;DHT22;7764;51.430;6.840;2023-01-29T05:44:09;0.10;99.90
15328;DHT22;7764;51.430;6.840;2023-01-29T05:46:36;0.10;99.90
15328;DHT22;7764;51.430;6.840;2023-01-29T05:49:03;0.10;99.90
15328;DHT22;7764;51.430;6.840;2023-01-29T05:51:30;0.10;99.90
15328;DHT22;7764;51.430;6.840;2023-01-29T05:53:58;0.10;99.90
15328;DHT22;7764;51.430;6.840;2023-01-29T05:56:25;0.10;99.90
15328;DHT22;7764;51.430;6.840;2023-01-29T05:58:52;0.10;99.90
15328;DHT22;7764;51.430;6.840;2023-01-29T06:01:20;0.10;99.90
15328;DHT22;7764;51.430;6.840;2023-01-29T06:03:47;0.10;99.90
15328;DHT22;7764;51.430;6.840;2023-01-29T06:06:15;0.10;99.90
15328;DHT22;7764;51.430;6.840;2023-01-29T06:08:42;0.10;99.90
15328;DHT22;7764;51.430;6.840;2023-01-29T06:11:11;0.10;99.90
15328;DHT22;7764;51.430;6.840;2023-01-29T06:13:38;0.10;99.90
15328;DHT22;7764;51.430;6.840;2023-01-29T06:16:06;0.10;99.90
15328;DHT22;7764;51.430;6.840;2023-01-29T06:18:34;0.10;99.90
15328;DHT22;7764;51.430;6.840;2023-01-29T06:21:02;0.10;99.90
15328;DHT22;7764;51.430;6.840;2023-01-29T06:23:29;0.30;99.90
15328;DHT22;7764;51.430;6.840;2023-01-29T06:25:58;0.30;99.90
15328;DHT22;7764;51.430;6.840;2023-01-29T06:28:27;0.30;99.90
15328;DHT22;7764;51.430;6.840;2023-01-29T06:30:56;0.30;99.90
15328;DHT22;7764;51.430;6.840;2023-01-29T06:33:24;0.20;99.90
15328;DHT22;7764;51.430;6.840;2023-01-29T06:35:55;0.20;99.90
15328;DHT22;7764;51.430;6.840;2023-01-29T06:38:22;0.20;99.90
15328;DHT22;7764;51.430;6.840;2023-01-29T06:40:49;0.30;99.90
15328;DHT22;7764;51.430;6.840;2023-01-29T06:43:16;0.40;99.90
15328;DHT22;7764;51.430;6.840;2023-01-29T06:45:48;0.40;99.90
15328;DHT22;7764;51.430;6.840;2023-01-29T06:48:15;0.40;99.90
15328;DHT22;7764;51.430;6.840;2023-01-29T06:50:42;0.40;99.90
15328;DHT22;7764;51.430;6.840;2023-01-29T06:53:10;0.40;99.90
15328;DHT22;7764;51.430;6.840;2023-01-29T06:55:37;0.40;99.90
15328;DHT22;7764;51.430;6.840;2023-01-29T06:58:04;0.30;99.90
15328;DHT22;7764;51.430;6.840;2023-01-29T07:00:32;0.20;99.90
15328;DHT22;7764;51.430;6.840;2023-01-29T07:03:00;0.20;99.90
15328;DHT22;7764;51.430;6.840;2023-01-29T07:05:27;0.30;99.90
15328;DHT22;7764;51.430;6.840;2023-01-29T07:07:54;0.30;99.90
15328;DHT22;7764;51.430;6.840;2023-01-29T07:10:21;0.40;99.90
15328;DHT22;7764;51.430;6.840;2023-01-29T07:12:48;0.30;99.90
15328;DHT22;7764;51.430;6.840;2023-01-29T07:15:15;0.30;99.90
15328;DHT22;7764;51.430;6.840;2023-01-29T07:17:55;0.30;99.90
15328;DHT22;7764;51.430;6.840;2023-01-29T07:20:23;0.30;99.90
15328;DHT22;7764;51.430;6.840;2023-01-29T07:22:50;0.20;99.90
15328;DHT22;7764;51.430;6.840;2023-01-29T07:25:17;0.20;99.90
15328;DHT22;7764;51.430;6.840;2023-01-29T07:27:44;0.30;99.90
15328;DHT22;7764;51.430;6.840;2023-01-29T07:30:11;0.30;99.90
15328;DHT22;7764;51.430;6.840;2023-01-29T07:32:38;0.30;99.90
15328;DHT22;7764;51.430;6.840;2023-01-29T07:35:06;0.30;99.90
15328;DHT22;7764;51.430;6.840;2023-01-29T07:37:34;0.20;99.90
15328;DHT22;7764;51.430;6.840;2023-01-29T07:40:02;0.20;99.90
15328;DHT22;7764;51.430;6.840;2023-01-29T07:42:29;0.30;99.90
15328;DHT22;7764;51.430;6.840;2023-01-29T07:44:56;0.20;99.90
15328;DHT22;7764;51.430;6.840;2023-01-29T07:47:23;0.30;99.90
15328;DHT22;7764;51.430;6.840;2023-01-29T07:49:50;0.30;99.90
15328;DHT22;7764;51.430;6.840;2023-01-29T07:52:17;0.40;99.90
15328;DHT22;7764;51.430;6.840;2023-01-29T07:54:45;0.40;99.90
15328;DHT22;7764;51.430;6.840;2023-01-29T07:57:12;0.40;99.90
15328;DHT22;7764;51.430;6.840;2023-01-29T07:59:39;0.40;99.90
15328;DHT22;7764;51.430;6.840;2023-01-29T08:02:07;0.60;99.90
15328;DHT22;7764;51.430;6.840;2023-01-29T08:04:34;0.50;99.90
15328;DHT22;7764;51.430;6.840;2023-01-29T08:07:01;0.60;99.90
15328;DHT22;7764;51.430;6.840;2023-01-29T08:09:29;0.60;99.90
15328;DHT22;7764;51.430;6.840;2023-01-29T08:11:57;0.60;99.90
15328;DHT22;7764;51.430;6.840;2023-01-29T08:14:24;0.70;99.90
15328;DHT22;7764;51.430;6.840;2023-01-29T08:16:51;0.70;99.90
15328;DHT22;7764;51.430;6.840;2023-01-29T08:19:18;0.70;99.90
15328;DHT22;7764;51.430;6.840;2023-01-29T08:21:45;0.60;99.90
15328;DHT22;7764;51.430;6.840;2023-01-29T08:24:12;0.70;99.90
15328;DHT22;7764;51.430;6.840;2023-01-29T08:26:39;0.70;99.90
15328;DHT22;7764;51.430;6.840;2023-01-29T08:29:07;0.70;99.90
15328;DHT22;7764;51.430;6.840;2023-01-29T08:31:33;0.70;99.90
15328;DHT22;7764;51.430;6.840;2023-01-29T08:34:00;0.60;99.90
15328;DHT22;7764;51.430;6.840;2023-01-29T08:36:27;0.70;99.90
15328;DHT22;7764;51.430;6.840;2023-01-29T08:38:54;0.70;99.90
15328;DHT22;7764;51.430;6.840;2023-01-29T08:41:21;0.60;99.90
15328;DHT22;7764;51.430;6.840;2023-01-29T08:43:48;0.60;99.90
15328;DHT22;7764;51.430;6.840;2023-01-29T08:46:16;0.70;99.90
15328;DHT22;7764;51.430;6.840;2023-01-29T08:48:43;0.70;99.90
15328;DHT22;7764;51.430;6.840;2023-01-29T08:51:09;0.80;99.90
15328;DHT22;7764;51.430;6.840;2023-01-29T08:53:36;0.90;99.90
15328;DHT22;7764;51.430;6.840;2023-01-29T08:56:03;0.80;99.90
15328;DHT22;7764;51.430;6.840;2023-01-29T08:58:30;0.80;99.90
15328;DHT22;7764;51.430;6.840;2023-01-29T09:01:04;0.80;99.90
15328;DHT22;7764;51.430;6.840;2023-01-29T09:03:33;0.90;99.90
15328;DHT22;7764;51.430;6.840;2023-01-29T09:06:00;0.80;99.90
15328;DHT22;7764;51.430;6.840;2023-01-29T09:08:26;0.90;99.90
15328;DHT22;7764;51.430;6.840;2023-01-29T09:10:53;0.90;99.90
15328;DHT22;7764;51.430;6.840;2023-01-29T09:13:20;1.00;99.90
15328;DHT22;7764;51.430;6.840;2023-01-29T09:15:47;1.00;99.90
15328;DHT22;7764;51.430;6.840;2023-01-29T09:18:14;1.00;99.90
15328;DHT22;7764;51.430;6.840;2023-01-29T09:20:42;1.00;99.90
15328;DHT22;7764;51.430;6.840;2023-01-29T09:23:10;1.10;99.90
15328;DHT22;7764;51.430;6.840;2023-01-29T09:25:37;1.10;99.90
15328;DHT22;7764;51.430;6.840;2023-01-29T09:28:04;1.10;99.90
15328;DHT22;7764;51.430;6.840;2023-01-29T09:30:31;1.20;99.90
15328;DHT22;7764;51.430;6.840;2023-01-29T09:33:02;1.20;99.90
15328;DHT22;7764;51.430;6.840;2023-01-29T09:35:28;1.20;99.90
15328;DHT22;7764;51.430;6.840;2023-01-29T09:37:57;1.30;99.90
15328;DHT22;7764;51.430;6.840;2023-01-29T09:40:26;1.30;99.90
15328;DHT22;7764;51.430;6.840;2023-01-29T09:43:00;1.40;99.90
15328;DHT22;7764;51.430;6.840;2023-01-29T09:45:29;1.40;99.90
15328;DHT22;7764;51.430;6.840;2023-01-29T09:47:58;1.50;99.90
15328;DHT22;7764;51.430;6.840;2023-01-29T09:50:29;1.50;99.90
15328;DHT22;7764;51.430;6.840;2023-01-29T09:53:01;1.50;99.90
15328;DHT22;7764;51.430;6.840;2023-01-29T09:55:30;1.50;99.90
15328;DHT22;7764;51.430;6.840;2023-01-29T09:58:04;1.60;99.90
15328;DHT22;7764;51.430;6.840;2023-01-29T10:00:36;1.60;99.90
15328;DHT22;7764;51.430;6.840;2023-01-29T10:03:14;1.60;99.90
15328;DHT22;7764;51.430;6.840;2023-01-29T10:05:59;1.70;99.90
15328;DHT22;7764;51.430;6.840;2023-01-29T10:08:54;1.60;99.90
15328;DHT22;7764;51.430;6.840;2023-01-29T10:11:34;1.70;99.90
15328;DHT22;7764;51.430;6.840;2023-01-29T10:14:12;1.70;99.90
15328;DHT22;7764;51.430;6.840;2023-01-29T10:16:53;1.60;99.90
15328;DHT22;7764;51.430;6.840;2023-01-29T10:19:45;1.70;99.90
15328;DHT22;7764;51.430;6.840;2023-01-29T10:22:31;1.70;99.90
15328;DHT22;7764;51.430;6.840;2023-01-29T10:25:03;1.70;99.90
15328;DHT22;7764;51.430;6.840;2023-01-29T10:27:32;1.70;99.90
15328;DHT22;7764;51.430;6.840;2023-01-29T10:30:00;1.70;99.90
15328;DHT22;7764;51.430;6.840;2023-01-29T10:32:28;1.80;99.90
15328;DHT22;7764;51.430;6.840;2023-01-29T10:34:59;1.70;99.90
15328;DHT22;7764;51.430;6.840;2023-01-29T10:37:34;1.80;99.90
15328;DHT22;7764;51.430;6.840;2023-01-29T10:40:16;1.80;99.90
15328;DHT22;7764;51.430;6.840;2023-01-29T10:42:48;1.80;99.90
15328;DHT22;7764;51.430;6.840;2023-01-29T10:45:25;2.00;99.90
15328;DHT22;7764;51.430;6.840;2023-01-29T10:48:19;2.00;99.90
15328;DHT22;7764;51.430;6.840;2023-01-29T10:50:50;2.00;99.90
15328;DHT22;7764;51.430;6.840;2023-01-29T10:53:32;2.10;99.90
15328;DHT22;7764;51.430;6.840;2023-01-29T10:56:21;2.00;99.90
15328;DHT22;7764;51.430;6.840;2023-01-29T10:58:54;2.00;99.90
15328;DHT22;7764;51.430;6.840;2023-01-29T11:01:23;2.10;99.90
15328;DHT22;7764;51.430;6.840;2023-01-29T11:03:56;2.20;99.90
15328;DHT22;7764;51.430;6.840;2023-01-29T11:06:28;2.10;99.90
15328;DHT22;7764;51.430;6.840;2023-01-29T11:09:00;2.20;99.90
15328;DHT22;7764;51.430;6.840;2023-01-29T11:11:33;2.20;99.90
15328;DHT22;7764;51.430;6.840;2023-01-29T11:14:04;2.30;99.90
15328;DHT22;7764;51.430;6.840;2023-01-29T11:16:39;2.30;99.90
15328;DHT22;7764;51.430;6.840;2023-01-29T11:19:07;2.30;99.90
15328;DHT22;7764;51.430;6.840;2023-01-29T11:21:50;2.30;99.90
15328;DHT22;7764;51.430;6.840;2023-01-29T11:24:17;2.30;99.90
15328;DHT22;7764;51.430;6.840;2023-01-29T11:26:47;2.30;99.90
15328;DHT22;7764;51.430;6.840;2023-01-29T11:29:33;2.30;99.90
15328;DHT22;7764;51.430;6.840;2023-01-29T11:32:04;2.40;99.90
15328;DHT22;7764;51.430;6.840;2023-01-29T11:34:32;2.50;99.90
15328;DHT22;7764;51.430;6.840;2023-01-29T11:37:00;2.50;99.90
15328;DHT22;7764;51.430;6.840;2023-01-29T11:39:28;2.50;99.90
15328;DHT22;7764;51.430;6.840;2023-01-29T11:41:59;2.50;99.90
15328;DHT22;7764;51.430;6.840;2023-01-29T11:44:28;2.50;99.90
15328;DHT22;7764;51.430;6.840;2023-01-29T11:46:57;2.50;99.90
15328;DHT22;7764;51.430;6.840;2023-01-29T11:49:31;2.50;99.90
15328;DHT22;7764;51.430;6.840;2023-01-29T11:52:00;2.50;99.90
15328;DHT22;7764;51.430;6.840;2023-01-29T11:54:31;2.50;99.90
15328;DHT22;7764;51.430;6.840;2023-01-29T11:57:02;2.50;99.90
15328;DHT22;7764;51.430;6.840;2023-01-29T11:59:38;2.50;99.90
15328;DHT22;7764;51.430;6.840;2023-01-29T12:02:24;2.60;99.90
15328;DHT22;7764;51.430;6.840;2023-01-29T12:04:53;2.60;99.90
15328;DHT22;7764;51.430;6.840;2023-01-29T12:07:21;2.60;99.90
15328;DHT22;7764;51.430;6.840;2023-01-29T12:09:51;2.70;99.90
15328;DHT22;7764;51.430;6.840;2023-01-29T12:12:32;2.70;99.90
15328;DHT22;7764;51.430;6.840;2023-01-29T12:15:09;2.60;99.90
15328;DHT22;7764;51.430;6.840;2023-01-29T12:17:41;2.60;99.90
15328;DHT22;7764;51.430;6.840;2023-01-29T12:20:12;2.70;99.90
15328;DHT22;7764;51.430;6.840;2023-01-29T12:22:46;2.80;99.90
15328;DHT22;7764;51.430;6.840;2023-01-29T12:25:20;2.80;99.90
15328;DHT22;7764;51.430;6.840;2023-01-29T12:27:55;2.80;99.90
15328;DHT22;7764;51.430;6.840;2023-01-29T12:30:27;2.90;99.90
15328;DHT22;7764;51.430;6.840;2023-01-29T12:33:00;2.90;99.90
15328;DHT22;7764;51.430;6.840;2023-01-29T12:35:31;2.90;99.90
15328;DHT22;7764;51.430;6.840;2023-01-29T12:38:02;2.90;99.90
15328;DHT22;7764;51.430;6.840;2023-01-29T12:40:33;3.00;99.90
15328;DHT22;7764;51.430;6.840;2023-01-29T12:43:05;3.10;99.90
15328;DHT22;7764;51.430;6.840;2023-01-29T12:45:36;3.10;99.90
15328;DHT22;7764;51.430;6.840;2023-01-29T12:48:07;3.10;99.90
15328;DHT22;7764;51.430;6.840;2023-01-29T12:50:35;3.10;99.90
15328;DHT22;7764;51.430;6.840;2023-01-29T12:53:09;3.10;99.90
15328;DHT22;7764;51.430;6.840;2023-01-29T12:55:43;3.10;99.90
15328;DHT22;7764;51.430;6.840;2023-01-29T12:58:15;3.20;99.90
15328;DHT22;7764;51.430;6.840;2023-01-29T13:00:48;3.10;99.90
15328;DHT22;7764;51.430;6.840;2023-01-29T13:03:20;3.20;99.90
15328;DHT22;7764;51.430;6.840;2023-01-29T13:05:50;3.20;99.90
15328;DHT22;7764;51.430;6.840;2023-01-29T13:08:21;3.20;99.90
15328;DHT22;7764;51.430;6.840;2023-01-29T13:10:51;3.20;99.90
15328;DHT22;7764;51.430;6.840;2023-01-29T13:13:26;3.30;99.90
15328;DHT22;7764;51.430;6.840;2023-01-29T13:15:54;3.20;99.90
15328;DHT22;7764;51.430;6.840;2023-01-29T13:18:40;3.30;99.90
15328;DHT22;7764;51.430;6.840;2023-01-29T13:21:13;3.10;99.90
15328;DHT22;7764;51.430;6.840;2023-01-29T13:23:43;3.20;99.90
15328;DHT22;7764;51.430;6.840;2023-01-29T13:26:11;3.20;99.90
15328;DHT22;7764;51.430;6.840;2023-01-29T13:28:44;3.20;99.90
15328;DHT22;7764;51.430;6.840;2023-01-29T13:31:17;3.20;99.90
15328;DHT22;7764;51.430;6.840;2023-01-29T13:33:52;3.20;99.90
15328;DHT22;7764;51.430;6.840;2023-01-29T13:36:24;3.20;99.90
15328;DHT22;7764;51.430;6.840;2023-01-29T13:38:57;3.20;99.90
15328;DHT22;7764;51.430;6.840;2023-01-29T13:41:34;3.30;99.90
15328;DHT22;7764;51.430;6.840;2023-01-29T13:44:06;3.30;99.90
15328;DHT22;7764;51.430;6.840;2023-01-29T13:46:39;3.30;99.90
15328;DHT22;7764;51.430;6.840;2023-01-29T13:49:25;3.20;99.90
15328;DHT22;7764;51.430;6.840;2023-01-29T13:51:53;3.20;99.90
15328;DHT22;7764;51.430;6.840;2023-01-29T13:54:24;3.10;99.90
15328;DHT22;7764;51.430;6.840;2023-01-29T13:57:00;3.20;99.90
15328;DHT22;7764;51.430;6.840;2023-01-29T13:59:51;3.30;99.90
15328;DHT22;7764;51.430;6.840;2023-01-29T14:02:23;3.30;99.90
15328;DHT22;7764;51.430;6.840;2023-01-29T14:04:51;3.30;99.90
15328;DHT22;7764;51.430;6.840;2023-01-29T14:07:37;3.20;99.90
15328;DHT22;7764;51.430;6.840;2023-01-29T14:10:14;3.10;99.90
15328;DHT22;7764;51.430;6.840;2023-01-29T14:12:42;3.10;99.90
15328;DHT22;7764;51.430;6.840;2023-01-29T14:15:25;3.20;99.90
15328;DHT22;7764;51.430;6.840;2023-01-29T14:20:57;3.10;99.90
15328;DHT22;7764;51.430;6.840;2023-01-29T14:23:36;3.10;99.90
15328;DHT22;7764;51.430;6.840;2023-01-29T14:26:19;3.10;99.90
15328;DHT22;7764;51.430;6.840;2023-01-29T14:28:52;3.20;99.90
15328;DHT22;7764;51.430;6.840;2023-01-29T14:31:43;3.20;99.90
15328;DHT22;7764;51.430;6.840;2023-01-29T14:34:22;3.20;99.90
15328;DHT22;7764;51.430;6.840;2023-01-29T14:36:53;3.30;99.90
15328;DHT22;7764;51.430;6.840;2023-01-29T14:39:33;3.20;99.90
15328;DHT22;7764;51.430;6.840;2023-01-29T14:42:03;3.20;99.90
15328;DHT22;7764;51.430;6.840;2023-01-29T14:44:56;3.20;99.90
15328;DHT22;7764;51.430;6.840;2023-01-29T14:48:01;3.20;99.90
15328;DHT22;7764;51.430;6.840;2023-01-29T14:50:50;3.20;99.90
15328;DHT22;7764;51.430;6.840;2023-01-29T14:53:23;3.20;99.90
15328;DHT22;7764;51.430;6.840;2023-01-29T14:55:57;3.20;99.90
15328;DHT22;7764;51.430;6.840;2023-01-29T14:58:33;3.10;99.90
15328;DHT22;7764;51.430;6.840;2023-01-29T15:01:02;3.10;99.90
15328;DHT22;7764;51.430;6.840;2023-01-29T15:03:38;3.20;99.90
15328;DHT22;7764;51.430;6.840;2023-01-29T15:06:13;3.20;99.90
15328;DHT22;7764;51.430;6.840;2023-01-29T15:08:46;3.20;99.90
15328;DHT22;7764;51.430;6.840;2023-01-29T15:11:21;3.20;99.90
15328;DHT22;7764;51.430;6.840;2023-01-29T15:14:04;3.30;99.90
15328;DHT22;7764;51.430;6.840;2023-01-29T15:16:43;3.30;99.90
15328;DHT22;7764;51.430;6.840;2023-01-29T15:19:17;3.20;99.90
15328;DHT22;7764;51.430;6.840;2023-01-29T15:22:07;3.30;99.90
15328;DHT22;7764;51.430;6.840;2023-01-29T15:24:35;3.30;99.90
15328;DHT22;7764;51.430;6.840;2023-01-29T15:27:02;3.30;99.90
15328;DHT22;7764;51.430;6.840;2023-01-29T15:29:29;3.20;99.90
15328;DHT22;7764;51.430;6.840;2023-01-29T15:31:57;3.20;99.90
15328;DHT22;7764;51.430;6.840;2023-01-29T15:34:26;3.30;99.90
15328;DHT22;7764;51.430;6.840;2023-01-29T15:36:53;3.20;99.90
15328;DHT22;7764;51.430;6.840;2023-01-29T15:39:21;3.30;99.90
15328;DHT22;7764;51.430;6.840;2023-01-29T15:41:49;3.30;99.90
15328;DHT22;7764;51.430;6.840;2023-01-29T15:44:20;3.30;99.90
15328;DHT22;7764;51.430;6.840;2023-01-29T15:46:49;3.30;99.90
15328;DHT22;7764;51.430;6.840;2023-01-29T15:49:23;3.30;99.90
15328;DHT22;7764;51.430;6.840;2023-01-29T15:51:57;3.30;99.90
15328;DHT22;7764;51.430;6.840;2023-01-29T15:54:24;3.30;99.90
15328;DHT22;7764;51.430;6.840;2023-01-29T15:56:55;3.30;99.90
15328;DHT22;7764;51.430;6.840;2023-01-29T15:59:25;3.30;99.90
15328;DHT22;7764;51.430;6.840;2023-01-29T16:01:52;3.40;99.90
15328;DHT22;7764;51.430;6.840;2023-01-29T16:04:22;3.40;99.90
15328;DHT22;7764;51.430;6.840;2023-01-29T16:06:52;3.40;99.90
15328;DHT22;7764;51.430;6.840;2023-01-29T16:09:22;3.50;99.90
15328;DHT22;7764;51.430;6.840;2023-01-29T16:11:52;3.50;99.90
15328;DHT22;7764;51.430;6.840;2023-01-29T16:14:21;3.50;99.90
15328;DHT22;7764;51.430;6.840;2023-01-29T16:16:50;3.40;99.90
15328;DHT22;7764;51.430;6.840;2023-01-29T16:19:22;3.40;99.90
15328;DHT22;7764;51.430;6.840;2023-01-29T16:21:56;3.40;99.90
15328;DHT22;7764;51.430;6.840;2023-01-29T16:24:26;3.40;99.90
15328;DHT22;7764;51.430;6.840;2023-01-29T16:26:58;3.50;99.90
15328;DHT22;7764;51.430;6.840;2023-01-29T16:29:29;3.50;99.90
15328;DHT22;7764;51.430;6.840;2023-01-29T16:31:58;3.50;99.90